Aviation Digital Data Service (ADDS)

Output produced by METARs form (0344 UTC 23 November 2017)
found at http://www.aviationweather.gov/adds/metars/
 
FABM 230305Z 09014KT 9999 FEW015 12/09 Q1025
FABL 230300Z 22002KT CAVOK 08/M05 Q1020 NOSIG
TAF FABL 222200Z 2300/2324 23010KT CAVOK 
     BECMG 2304/2306 01010KT 
     BECMG 2310/2312 27015KT TX31/2313Z TN10/2303Z
       
FACT 230300Z VRB01KT 9999 FEW040 09/07 Q1022 NOSIG
TAF FACT 222200Z 2300/2406 19010KT 9999 FEW030 
     FM232000 18010KT 9999 BKN020 TX22/2312Z TN09/2304Z
       
FAEL 230300Z 27005KT 240V300 CAVOK 15/06 Q1022
TAF FAEL 230300Z 2304/2315 27005KT 9999 SCT045 
     BECMG 2308/2310 10010KT TX23/2312Z TN12/2304Z
       
FAGG 230300Z 32005KT 9999 FEW035 09/07 Q1022
TAF FAGG 222200Z 2300/2324 21005KT 9999 SCT030 
     FM232000 18005KT 9999 BKN020 TX20/2312Z TN09/2304Z
       
FAHS 230300Z AUTO 18012KT //// // ////// 21/17 Q1019
TAF FAHS 230300Z 2304/2315 16016KT 9999 BKN020 BKN080 TX29/2311Z TN20/2304Z
       
FAKM 230300Z 19002KT CAVOK 10/M11 Q1019
TAF FAKM 230300Z 2304/2315 27008KT CAVOK TX32/2312Z TN10/2304Z
       
FALW 230300Z AUTO 17001KT //// // ////// 08/04 Q1021
FALA 230300Z AUTO 12003KT //// // ////// 17/14 Q1021
TAF FALA 222200Z 2300/2324 VRB03KT 9999 BKN025 
     BECMG 2300/2302 08010KT CAVOK 
     BECMG 2305/2307 02013KT 
     BECMG 2314/2316 VRB08KT 
     PROB40 
     TEMPO 2315/2318 5000 TSRA FEW040CB 
     BECMG 2319/2321 02007KT TX29/2313Z TN18/2303Z
       
FAMM 230300Z AUTO 09003KT FEW012 SCT100 19/13 Q1020 TEMPO BKN012
FAOB 230300Z AUTO 01004KT //// // ////// 12/07 Q1022
TAF FAPM 230300Z 2304/2315 05004KT 8000 BKN010 BKN025 
     TEMPO 2304/2308 3000 BR BKN004 BKN010 
     TEMPO 2304/2315 4000 SHRA BKN007 BKN012TCU 
     BECMG 2312/2314 10012KT TX17/2312Z TN12/2304Z
       
FAPN 230100Z AUTO 31003KT //// // ////// 19/16 Q1017
FAPE 230300Z 35004KT CAVOK 11/07 Q1022 NOSIG
TAF FAPE 222200Z 2300/2324 27010KT CAVOK 
     BECMG 2308/2310 17010KT 
     BECMG 2316/2318 VRB03KT 9999 SCT025 
     BECMG 2320/2322 24015KT BKN030 TX22/2312Z TN14/2304Z
       
TAF FARB 230300Z 2304/2315 15010KT 9999 SCT015 BKN020 
     PROB30 
     TEMPO 2311/2315 5000 RA BKN012 BKN020 TX23/2312Z TN18/2304Z
       
FAUT 230300Z 19003KT 1000 -DZ BKN006 OVC010 10/09 Q1023
TAF FAUT 230300Z 2304/2315 16005KT 9999 SCT010 BKN017 
     TEMPO 2304/2306 0800 DZ FG OVC005 
     BECMG 2307/2309 BKN025 
     BECMG 2310/2312 BKN010 TX18/2312Z TN10/2304Z
       
FAUP 230300Z 21004KT CAVOK 10/M01 Q1019 NOSIG
TAF FAUP 222200Z 2300/2324 18010KT CAVOK TX34/2313Z TN09/2303Z
       
FAWB 230300Z AUTO 00000KT //// // ////// 19/14 Q1019
TAF FAWB 230300Z 2304/2315 VRB02KT CAVOK 
     BECMG 2304/2306 01012KT 
     BECMG 2308/2310 SCT035 
     PROB40 
     TEMPO 2314/2315 -TSRA FEW035CB TX32/2311Z TN18/2304Z